createdAt,value
2019-03-31T00:04:24.429Z,96726.00
2019-03-31T00:09:27.335Z,96726.00
2019-03-31T00:14:30.286Z,96721.00
2019-03-31T00:19:33.203Z,96721.00
2019-03-31T00:24:36.556Z,96720.00
2019-03-31T00:29:39.534Z,96720.00
2019-03-31T00:34:42.972Z,96709.00
2019-03-31T00:39:45.873Z,96710.00
2019-03-31T00:44:48.772Z,96727.00
2019-03-31T00:49:52.092Z,96716.00
2019-03-31T00:54:55.245Z,96720.00
2019-03-31T00:59:58.151Z,96726.00
2019-03-31T01:05:01.521Z,96719.00
2019-03-31T01:10:06.278Z,96710.00
2019-03-31T01:15:17.979Z,96711.00
2019-03-31T01:20:20.896Z,96708.00
2019-03-31T01:25:25.459Z,96703.00
2019-03-31T01:30:28.984Z,96706.00
2019-03-31T01:35:32.099Z,96703.00
2019-03-31T01:40:35.251Z,96699.00
2019-03-31T01:45:38.255Z,96703.00
2019-03-31T01:50:41.151Z,96698.00
2019-03-31T01:55:45.122Z,96698.00
2019-03-31T02:00:52.539Z,96700.00
2019-03-31T02:05:55.523Z,96690.00
2019-03-31T02:10:58.435Z,96695.00
2019-03-31T02:16:01.536Z,96692.00
2019-03-31T02:21:04.553Z,96689.00
2019-03-31T02:26:07.697Z,96383.00
2019-03-31T02:31:11.534Z,96692.00
2019-03-31T02:36:14.533Z,96688.00
2019-03-31T02:41:17.447Z,96686.00
2019-03-31T02:46:20.476Z,96683.00
2019-03-31T02:51:24.532Z,96676.00
2019-03-31T02:56:28.223Z,96675.00
2019-03-31T03:01:33.504Z,96674.00
2019-03-31T03:06:38.274Z,96683.00
2019-03-31T03:11:41.735Z,96676.00
2019-03-31T03:16:45.727Z,96676.00
2019-03-31T03:21:48.679Z,96674.00
2019-03-31T03:26:51.937Z,96674.00
2019-03-31T03:31:54.902Z,96668.00
2019-03-31T03:36:58.992Z,96666.00
2019-03-31T03:42:02.075Z,96668.00
2019-03-31T03:47:05.098Z,96667.00
2019-03-31T03:52:09.609Z,96662.00
2019-03-31T03:57:12.753Z,96659.00
2019-03-31T04:02:15.708Z,96666.00
2019-03-31T04:07:18.629Z,96667.00
2019-03-31T04:12:21.608Z,96668.00
2019-03-31T04:17:24.725Z,96660.00
2019-03-31T04:22:27.697Z,96663.00
2019-03-31T04:27:31.062Z,96662.00
2019-03-31T04:32:38.503Z,96655.00
2019-03-31T04:37:38.898Z,96656.00
2019-03-31T04:42:41.796Z,96663.00
2019-03-31T04:47:44.766Z,96663.00
2019-03-31T04:52:47.747Z,96662.00
2019-03-31T04:57:52.233Z,96674.00
2019-03-31T05:02:56.459Z,96663.00
2019-03-31T05:07:59.447Z,96672.00
2019-03-31T05:13:02.476Z,96673.00
2019-03-31T05:18:05.570Z,96683.00
2019-03-31T05:23:08.585Z,96680.00
2019-03-31T05:28:16.224Z,96687.00
2019-03-31T05:33:19.152Z,96695.00
2019-03-31T05:38:22.195Z,96696.00
2019-03-31T05:43:25.091Z,96699.00
2019-03-31T05:48:27.986Z,96704.00
2019-03-31T05:53:32.616Z,96700.00
2019-03-31T05:58:35.932Z,96697.00
2019-03-31T06:03:39.333Z,96702.00
2019-03-31T06:08:43.127Z,96709.00
2019-03-31T06:13:46.425Z,96713.00
2019-03-31T06:18:49.468Z,96707.00
2019-03-31T06:23:52.542Z,96706.00
2019-03-31T06:28:56.371Z,96717.00
2019-03-31T06:33:59.351Z,96716.00
2019-03-31T06:39:04.358Z,96716.00
2019-03-31T06:44:07.416Z,96724.00
2019-03-31T06:49:10.411Z,96723.00
2019-03-31T06:54:13.368Z,96734.00
2019-03-31T06:59:17.830Z,96732.00
2019-03-31T07:04:20.852Z,96744.00
2019-03-31T07:09:23.823Z,96733.00
2019-03-31T07:14:26.796Z,96752.00
2019-03-31T07:19:29.759Z,96740.00
2019-03-31T07:24:32.756Z,96743.00
2019-03-31T07:29:36.695Z,96733.00
2019-03-31T07:34:40.144Z,96747.00
2019-03-31T07:39:45.876Z,96748.00
2019-03-31T07:44:47.941Z,96750.00
2019-03-31T07:49:50.871Z,96750.00
2019-03-31T07:54:54.120Z,96747.00
2019-03-31T08:00:01.388Z,96750.00
2019-03-31T08:05:06.700Z,96755.00
2019-03-31T08:10:10.898Z,96750.00
2019-03-31T08:15:13.954Z,96751.00
2019-03-31T08:20:18.956Z,96753.00
2019-03-31T08:25:21.924Z,96754.00
2019-03-31T08:30:25.078Z,96764.00
2019-03-31T08:35:28.027Z,96758.00
2019-03-31T08:40:31.072Z,96755.00
2019-03-31T08:45:34.384Z,96758.00
2019-03-31T08:50:37.421Z,96764.00
2019-03-31T08:55:41.368Z,96750.00
2019-03-31T09:01:04.039Z,96758.00
2019-03-31T09:06:07.625Z,96756.00
2019-03-31T09:11:10.958Z,96757.00
2019-03-31T09:16:14.366Z,96761.00
2019-03-31T09:21:17.550Z,96762.00
2019-03-31T09:26:20.612Z,96759.00
2019-03-31T09:31:25.104Z,96765.00
2019-03-31T09:36:28.041Z,96757.00
2019-03-31T09:41:30.973Z,96757.00
2019-03-31T09:46:34.033Z,96755.00
2019-03-31T09:51:36.993Z,96757.00
2019-03-31T09:56:40.222Z,96748.00
2019-03-31T10:01:43.188Z,96747.00
2019-03-31T10:06:46.285Z,96736.00
2019-03-31T10:11:49.372Z,96734.00
2019-03-31T10:16:53.179Z,96727.00
2019-03-31T10:21:56.687Z,96731.00
2019-03-31T10:27:00.458Z,96725.00
2019-03-31T10:32:03.612Z,96717.00
2019-03-31T10:37:06.558Z,96723.00
2019-03-31T10:42:09.570Z,96708.00
2019-03-31T10:47:12.516Z,96708.00
2019-03-31T10:52:15.407Z,96707.00
2019-03-31T10:57:18.835Z,96706.00
2019-03-31T11:02:22.050Z,96702.00
2019-03-31T11:07:25.161Z,96698.00
2019-03-31T11:12:28.507Z,96692.00
2019-03-31T11:17:31.388Z,96701.00
2019-03-31T11:22:39.172Z,96693.00
2019-03-31T11:27:43.955Z,96701.00
2019-03-31T11:32:47.078Z,96695.00
2019-03-31T11:37:50.059Z,96694.00
2019-03-31T11:42:53.427Z,96691.00
2019-03-31T11:47:56.422Z,96681.00
2019-03-31T11:53:00.379Z,96681.00
2019-03-31T11:58:03.590Z,96672.00
2019-03-31T12:03:06.626Z,96674.00
2019-03-31T12:08:09.597Z,96683.00
2019-03-31T12:13:12.615Z,96674.00
2019-03-31T12:18:15.752Z,96670.00
2019-03-31T12:23:18.775Z,96673.00
2019-03-31T12:28:21.967Z,96666.00
2019-03-31T12:33:25.249Z,96656.00
2019-03-31T12:38:28.140Z,96656.00
2019-03-31T12:43:31.356Z,96650.00
2019-03-31T12:48:34.444Z,96645.00
2019-03-31T12:53:37.359Z,96640.00
2019-03-31T12:58:41.557Z,96638.00
2019-03-31T13:03:44.448Z,96640.00
2019-03-31T13:08:47.437Z,96637.00
2019-03-31T13:13:50.412Z,96628.00
2019-03-31T13:18:53.755Z,96616.00
2019-03-31T13:23:56.750Z,96618.00
2019-03-31T13:29:00.278Z,96612.00
2019-03-31T13:34:03.255Z,96599.00
2019-03-31T13:39:11.343Z,96601.00
2019-03-31T13:44:14.341Z,96594.00
2019-03-31T13:49:17.314Z,96581.00
2019-03-31T13:54:20.223Z,96590.00
2019-03-31T13:59:23.157Z,96595.00
2019-03-31T14:04:26.119Z,96594.00
2019-03-31T14:09:29.155Z,96591.00
2019-03-31T14:14:32.079Z,96590.00
2019-03-31T14:19:35.004Z,96587.00
2019-03-31T14:24:38.218Z,96586.00
2019-03-31T14:29:45.064Z,96458.00
2019-03-31T14:34:49.146Z,96585.00
2019-03-31T14:39:53.075Z,96577.00
2019-03-31T14:44:56.087Z,96572.00
2019-03-31T14:50:00.679Z,96566.00
2019-03-31T14:55:03.937Z,96562.00
2019-03-31T15:00:14.629Z,96563.00
2019-03-31T15:05:12.104Z,96557.00
2019-03-31T15:10:15.135Z,96552.00
2019-03-31T15:15:18.115Z,96552.00
2019-03-31T15:20:21.304Z,96558.00
2019-03-31T15:25:24.256Z,96553.00
2019-03-31T15:30:27.424Z,96563.00
2019-03-31T15:35:30.456Z,96555.00
2019-03-31T15:40:34.158Z,96557.00
2019-03-31T15:45:37.207Z,96554.00
2019-03-31T15:50:40.173Z,96561.00
2019-03-31T15:55:43.573Z,96567.00
2019-03-31T16:00:46.419Z,96559.00
2019-03-31T16:05:49.362Z,96561.00
2019-03-31T16:10:52.423Z,96556.00
2019-03-31T16:15:54.980Z,96562.00
2019-03-31T16:20:57.309Z,96558.00
2019-03-31T16:26:07.535Z,96553.00
2019-03-31T16:31:10.008Z,96560.00
2019-03-31T16:36:12.507Z,96557.00
2019-03-31T16:41:15.124Z,96553.00
2019-03-31T16:46:17.897Z,96560.00
2019-03-31T16:51:21.427Z,96553.00
2019-03-31T16:56:24.035Z,96555.00
2019-03-31T17:01:26.413Z,96555.00
2019-03-31T17:06:28.835Z,96564.00
2019-03-31T17:11:32.330Z,96565.00
2019-03-31T17:16:34.988Z,96560.00
2019-03-31T17:21:37.394Z,96560.00
2019-03-31T17:26:40.219Z,96568.00
2019-03-31T17:31:42.563Z,96566.00
2019-03-31T17:36:47.358Z,96556.00
2019-03-31T17:41:50.489Z,96565.00
2019-03-31T17:46:52.872Z,96568.00
2019-03-31T17:51:55.403Z,96566.00
2019-03-31T17:56:57.916Z,96578.00
2019-03-31T18:02:01.719Z,96582.00
2019-03-31T18:07:04.701Z,96578.00
2019-03-31T18:12:08.870Z,96587.00
2019-03-31T18:17:11.815Z,96600.00
2019-03-31T18:22:16.561Z,96603.00
2019-03-31T18:27:18.343Z,96615.00
2019-03-31T18:32:20.886Z,96616.00
2019-03-31T18:37:23.271Z,96622.00
2019-03-31T18:42:29.056Z,96635.00
2019-03-31T18:47:31.436Z,96646.00
2019-03-31T18:52:33.801Z,96645.00
2019-03-31T18:57:45.420Z,96648.00
2019-03-31T19:03:06.082Z,96653.00
2019-03-31T19:08:34.036Z,96669.00
2019-03-31T19:13:55.907Z,96682.00
2019-03-31T19:19:18.045Z,96546.00
2019-03-31T19:24:30.878Z,96684.00
2019-03-31T19:29:52.845Z,96697.00
2019-03-31T19:35:13.207Z,96696.00
2019-03-31T19:40:33.686Z,96703.00
2019-03-31T19:45:55.002Z,96703.00
2019-03-31T19:51:10.179Z,96708.00
2019-03-31T19:56:32.170Z,96708.00
2019-03-31T20:01:57.187Z,96713.00
2019-03-31T20:07:25.520Z,96703.00
2019-03-31T20:12:50.996Z,96707.00
2019-03-31T20:18:11.713Z,96716.00
2019-03-31T20:23:33.736Z,96726.00
2019-03-31T20:28:41.899Z,96715.00
2019-03-31T20:33:51.587Z,96713.00
2019-03-31T20:39:13.526Z,96720.00
2019-03-31T20:44:16.132Z,96711.00
2019-03-31T20:49:18.890Z,96724.00
2019-03-31T20:54:21.323Z,96722.00
2019-03-31T20:59:23.747Z,96734.00
2019-03-31T21:04:26.349Z,96740.00
2019-03-31T21:09:28.774Z,96745.00
2019-03-31T21:14:31.331Z,96746.00
2019-03-31T21:19:33.975Z,96756.00
2019-03-31T21:24:36.434Z,96765.00
2019-03-31T21:29:38.795Z,96774.00
2019-03-31T21:34:41.189Z,96767.00
2019-03-31T21:39:43.664Z,96765.00
2019-03-31T21:44:46.190Z,96768.00
2019-03-31T21:49:48.762Z,96762.00
2019-03-31T21:54:52.547Z,96764.00
2019-03-31T21:59:55.444Z,96770.00
2019-03-31T22:04:57.816Z,96764.00
2019-03-31T22:10:00.624Z,96768.00
2019-03-31T22:15:03.144Z,96759.00
2019-03-31T22:20:06.917Z,96766.00
2019-03-31T22:25:11.199Z,96766.00
2019-03-31T22:30:13.583Z,96760.00
2019-03-31T22:35:16.023Z,96751.00
2019-03-31T22:40:18.419Z,96752.00
2019-03-31T22:45:20.788Z,96762.00
2019-03-31T22:50:23.815Z,96740.00
2019-03-31T22:55:26.807Z,96742.00
2019-03-31T23:00:29.062Z,96748.00
2019-03-31T23:05:31.327Z,96743.00
2019-03-31T23:10:33.695Z,96733.00
2019-03-31T23:15:36.054Z,96731.00
2019-03-31T23:20:39.659Z,96728.00
2019-03-31T23:25:42.044Z,96734.00
2019-03-31T23:30:45.238Z,96731.00
2019-03-31T23:35:47.524Z,96731.00
2019-03-31T23:40:51.686Z,96728.00
2019-03-31T23:45:54.069Z,96729.00
2019-03-31T23:50:57.001Z,96727.00
2019-03-31T23:55:59.388Z,96714.00
